createdAt,value
2018-03-20T01:42:48.327Z,1012.21
2018-03-20T01:42:48.920Z,1012.17
2018-03-20T01:42:49.500Z,1012.17
2018-03-20T01:42:50.100Z,1012.17
2018-03-20T01:42:50.698Z,1012.20
2018-03-20T01:42:51.298Z,1012.18
2018-03-20T01:42:51.899Z,1012.19
2018-03-20T01:42:52.499Z,1012.18
2018-03-20T01:43:45.980Z,1012.18
2018-03-20T01:43:46.554Z,1012.16
2018-03-20T01:43:47.152Z,1012.17
2018-03-20T01:43:47.751Z,1012.14
2018-03-20T01:43:48.352Z,1012.15
2018-03-20T01:43:48.951Z,1012.16
2018-03-20T01:43:49.557Z,1012.18
2018-03-20T01:43:50.150Z,1012.20
2018-03-20T01:44:43.634Z,1012.21
2018-03-20T01:44:44.205Z,1012.17
2018-03-20T01:44:44.805Z,1012.20
2018-03-20T01:44:45.405Z,1012.20
2018-03-20T01:44:46.006Z,1012.18
2018-03-20T01:44:46.604Z,1012.21
2018-03-20T01:44:47.204Z,1012.19
2018-03-20T01:44:47.803Z,1012.19
2018-03-20T01:45:42.321Z,1012.19
2018-03-20T01:45:42.880Z,1012.17
2018-03-20T01:45:43.482Z,1012.15
2018-03-20T01:45:44.080Z,1012.15
2018-03-20T01:45:44.680Z,1012.14
2018-03-20T01:45:45.280Z,1012.15
2018-03-20T01:45:45.882Z,1012.13
2018-03-20T01:45:46.479Z,1012.11
2018-03-20T01:46:40.985Z,1012.12
2018-03-20T01:46:41.558Z,1012.12
2018-03-20T01:46:42.157Z,1012.11
2018-03-20T01:46:42.758Z,1012.13
2018-03-20T01:46:43.356Z,1012.14
2018-03-20T01:46:43.963Z,1012.13
2018-03-20T01:46:44.556Z,1012.15
2018-03-20T01:46:45.157Z,1012.14
2018-03-20T01:47:39.660Z,1012.15
2018-03-20T01:47:40.233Z,1012.13
2018-03-20T01:47:40.833Z,1012.11
2018-03-20T01:47:41.432Z,1012.12
2018-03-20T01:47:42.032Z,1012.16
2018-03-20T01:47:42.632Z,1012.15
2018-03-20T01:47:43.234Z,1012.15
2018-03-20T01:47:43.831Z,1012.14
2018-03-20T01:48:38.335Z,1012.16
2018-03-20T01:48:38.908Z,1012.15
2018-03-20T01:48:39.507Z,1012.13
2018-03-20T01:48:40.109Z,1012.16
2018-03-20T01:48:40.712Z,1012.19
2018-03-20T01:48:41.309Z,1012.18
2018-03-20T01:48:41.907Z,1012.14
2018-03-20T01:48:42.510Z,1012.12
2018-03-20T01:49:35.990Z,1012.13
2018-03-20T01:49:36.562Z,1012.17
2018-03-20T01:49:37.162Z,1012.13
2018-03-20T01:49:37.761Z,1012.14
2018-03-20T01:49:38.361Z,1012.10
2018-03-20T01:49:38.961Z,1012.15
2018-03-20T01:49:39.561Z,1012.12
2018-03-20T01:49:40.161Z,1012.13
2018-03-20T01:50:33.642Z,1012.10
2018-03-20T01:50:34.214Z,1012.10
2018-03-20T01:50:34.814Z,1012.09
2018-03-20T01:50:35.413Z,1012.11
2018-03-20T01:50:36.014Z,1012.14
2018-03-20T01:50:36.616Z,1012.08
2018-03-20T01:50:37.212Z,1012.14
2018-03-20T01:50:37.811Z,1012.11
2018-03-20T01:51:32.316Z,1012.08
2018-03-20T01:51:32.891Z,1012.08
2018-03-20T01:51:33.489Z,1012.08
2018-03-20T01:51:34.090Z,1012.09
2018-03-20T01:51:34.689Z,1012.10
2018-03-20T01:51:35.289Z,1012.10
2018-03-20T01:51:35.889Z,1012.09
2018-03-20T01:51:36.489Z,1012.07
2018-03-20T01:52:30.990Z,1012.08
2018-03-20T01:52:31.565Z,1012.05
2018-03-20T01:52:32.165Z,1012.06
2018-03-20T01:52:32.769Z,1012.09
2018-03-20T01:52:33.366Z,1012.07
2018-03-20T01:52:33.966Z,1012.08
2018-03-20T01:52:34.565Z,1012.06
2018-03-20T01:52:35.163Z,1012.07
2018-03-20T01:53:29.675Z,1012.08
2018-03-20T01:53:30.241Z,1012.09
2018-03-20T01:53:30.840Z,1012.10
2018-03-20T01:53:31.441Z,1012.09
2018-03-20T01:53:32.040Z,1012.06
2018-03-20T01:53:32.640Z,1012.11
2018-03-20T01:53:33.239Z,1012.07
2018-03-20T01:53:33.840Z,1012.10
2018-03-20T01:54:27.321Z,1012.08
2018-03-20T01:54:27.893Z,1012.13
2018-03-20T01:54:28.499Z,1012.11
2018-03-20T01:54:29.103Z,1012.11
2018-03-20T01:54:29.694Z,1012.10
2018-03-20T01:54:30.292Z,1012.11
2018-03-20T01:54:30.893Z,1012.08
2018-03-20T01:54:31.492Z,1012.11
2018-03-20T01:55:25.999Z,1012.12
2018-03-20T01:55:26.569Z,1012.07
2018-03-20T01:55:27.168Z,1012.10
2018-03-20T01:55:27.768Z,1012.07
2018-03-20T01:55:28.368Z,1012.05
2018-03-20T01:55:28.967Z,1012.09
2018-03-20T01:55:29.567Z,1012.04
2018-03-20T01:55:30.167Z,1012.06
2018-03-20T01:56:23.655Z,1012.08
2018-03-20T01:56:24.220Z,1012.06
2018-03-20T01:56:24.819Z,1012.06
2018-03-20T01:56:25.573Z,1012.05
2018-03-20T01:56:26.023Z,1012.06
2018-03-20T01:56:26.619Z,1012.05
2018-03-20T01:56:27.224Z,1012.08
2018-03-20T01:56:27.821Z,1012.07
2018-03-20T01:57:21.300Z,1012.02
2018-03-20T01:57:21.871Z,1012.04
2018-03-20T01:57:22.473Z,1012.02
2018-03-20T01:57:23.073Z,1012.03
2018-03-20T01:57:23.672Z,1012.03
2018-03-20T01:57:24.272Z,1012.04
2018-03-20T01:57:24.872Z,1012.07
2018-03-20T01:57:25.472Z,1012.04
2018-03-20T01:58:19.975Z,1012.04
2018-03-20T01:58:20.547Z,1012.03
2018-03-20T01:58:21.147Z,1012.04
2018-03-20T01:58:21.746Z,1012.02
2018-03-20T01:58:22.349Z,1012.01
2018-03-20T01:58:22.947Z,1012.03
2018-03-20T01:58:23.546Z,1012.03
2018-03-20T01:58:24.146Z,1012.04
2018-03-20T01:59:17.628Z,1012.03
2018-03-20T01:59:18.200Z,1012.03
2018-03-20T01:59:18.800Z,1012.03
2018-03-20T01:59:19.400Z,1012.03
2018-03-20T01:59:19.999Z,1012.03
2018-03-20T01:59:20.599Z,1012.05
2018-03-20T01:59:21.199Z,1012.03
2018-03-20T01:59:21.798Z,1012.05
2018-03-20T02:00:16.306Z,1012.03
2018-03-20T02:00:16.875Z,1012.01
2018-03-20T02:00:17.477Z,1012.01
2018-03-20T02:00:18.079Z,1011.99
2018-03-20T02:00:18.674Z,1012.02
2018-03-20T02:00:19.275Z,1012.02
2018-03-20T02:00:19.874Z,1012.04
2018-03-20T02:00:20.475Z,1012.03
2018-03-20T02:01:14.979Z,1012.04
2018-03-20T02:01:15.550Z,1012.00
2018-03-20T02:01:16.150Z,1012.02
2018-03-20T02:01:16.750Z,1012.03
2018-03-20T02:01:17.350Z,1012.03
2018-03-20T02:01:17.949Z,1011.99
2018-03-20T02:01:18.549Z,1012.02
2018-03-20T02:01:19.149Z,1012.06
2018-03-20T02:02:13.656Z,1012.02
2018-03-20T02:02:14.230Z,1011.99
2018-03-20T02:02:14.827Z,1011.98
2018-03-20T02:02:15.426Z,1012.00
2018-03-20T02:02:16.026Z,1011.99
2018-03-20T02:02:16.626Z,1011.99
2018-03-20T02:02:17.226Z,1012.00
2018-03-20T02:02:17.825Z,1012.04
2018-03-20T02:03:12.330Z,1011.98
2018-03-20T02:03:12.901Z,1011.97
2018-03-20T02:03:13.503Z,1011.93
2018-03-20T02:03:14.102Z,1011.98
2018-03-20T02:03:14.702Z,1011.98
2018-03-20T02:03:15.300Z,1011.96
2018-03-20T02:03:15.904Z,1012.01
2018-03-20T02:03:16.500Z,1011.98
2018-03-20T02:04:11.005Z,1012.03
2018-03-20T02:04:11.578Z,1012.00
2018-03-20T02:04:12.180Z,1012.01
2018-03-20T02:04:12.778Z,1012.02
2018-03-20T02:04:13.377Z,1011.99
2018-03-20T02:04:13.980Z,1012.02
2018-03-20T02:04:14.580Z,1012.01
2018-03-20T02:04:15.176Z,1012.02
2018-03-20T02:05:09.682Z,1011.98
2018-03-20T02:05:10.254Z,1011.99
2018-03-20T02:05:10.854Z,1011.97
2018-03-20T02:05:11.457Z,1011.98
2018-03-20T02:05:12.053Z,1011.96
2018-03-20T02:05:12.652Z,1011.97
2018-03-20T02:05:13.259Z,1011.97
2018-03-20T02:05:13.852Z,1011.96
2018-03-20T02:06:08.358Z,1012.02
2018-03-20T02:06:08.928Z,1012.01
2018-03-20T02:06:09.530Z,1011.97
2018-03-20T02:06:10.133Z,1011.96
2018-03-20T02:06:10.728Z,1011.98
2018-03-20T02:06:11.329Z,1012.00
2018-03-20T02:06:11.928Z,1012.01
2018-03-20T02:06:12.527Z,1012.00
2018-03-20T02:07:06.013Z,1011.99
2018-03-20T02:07:06.583Z,1011.98
2018-03-20T02:07:07.181Z,1011.99
2018-03-20T02:07:07.781Z,1011.98
2018-03-20T02:07:08.384Z,1012.00
2018-03-20T02:07:08.981Z,1011.99
2018-03-20T02:07:09.582Z,1012.02
2018-03-20T02:07:10.186Z,1012.00
2018-03-20T02:08:03.664Z,1012.02
2018-03-20T02:08:04.236Z,1011.96
2018-03-20T02:08:04.833Z,1012.00
2018-03-20T02:08:05.434Z,1011.98
2018-03-20T02:08:06.033Z,1011.97
2018-03-20T02:08:06.632Z,1011.99
2018-03-20T02:08:07.234Z,1011.99
2018-03-20T02:08:07.833Z,1011.98
2018-03-20T02:09:02.344Z,1011.99
2018-03-20T02:09:02.915Z,1011.99
2018-03-20T02:09:03.513Z,1011.96
2018-03-20T02:09:04.112Z,1011.94
2018-03-20T02:09:04.712Z,1011.97
2018-03-20T02:09:05.312Z,1011.95
2018-03-20T02:09:05.912Z,1012.00
2018-03-20T02:09:06.515Z,1011.99
2018-03-20T02:09:59.996Z,1011.99
2018-03-20T02:10:00.567Z,1011.98
2018-03-20T02:10:01.165Z,1011.93
2018-03-20T02:10:01.764Z,1011.91
2018-03-20T02:10:02.366Z,1011.91
2018-03-20T02:10:02.965Z,1011.94
2018-03-20T02:10:03.563Z,1011.93
2018-03-20T02:10:04.166Z,1011.97
2018-03-20T02:10:58.674Z,1011.92
2018-03-20T02:10:59.240Z,1011.87
2018-03-20T02:10:59.841Z,1011.90
2018-03-20T02:11:00.439Z,1011.89
2018-03-20T02:11:01.038Z,1011.92
2018-03-20T02:11:01.645Z,1011.91
2018-03-20T02:11:02.239Z,1011.94
2018-03-20T02:11:02.839Z,1011.92
2018-03-20T02:11:56.323Z,1011.92
2018-03-20T02:11:56.894Z,1011.88
2018-03-20T02:11:57.492Z,1011.86
2018-03-20T02:11:58.091Z,1011.89
2018-03-20T02:11:58.694Z,1011.89
2018-03-20T02:11:59.294Z,1011.86
2018-03-20T02:11:59.891Z,1011.84
2018-03-20T02:12:00.495Z,1011.90
2018-03-20T02:12:55.002Z,1011.88
2018-03-20T02:12:55.578Z,1011.85
2018-03-20T02:12:56.166Z,1011.83
2018-03-20T02:12:56.769Z,1011.87
2018-03-20T02:12:57.368Z,1011.84
2018-03-20T02:12:57.966Z,1011.86
2018-03-20T02:12:58.564Z,1011.88
2018-03-20T02:12:59.166Z,1011.86
2018-03-20T02:13:52.651Z,1011.89
2018-03-20T02:13:53.221Z,1011.85
2018-03-20T02:13:53.821Z,1011.86
2018-03-20T02:13:54.420Z,1011.88
2018-03-20T02:13:55.022Z,1011.89
2018-03-20T02:13:55.620Z,1011.86
2018-03-20T02:13:56.220Z,1011.85
2018-03-20T02:13:56.819Z,1011.91
2018-03-20T02:14:51.325Z,1011.93
2018-03-20T02:14:51.896Z,1011.91
2018-03-20T02:14:52.494Z,1011.91
2018-03-20T02:14:53.095Z,1011.88
2018-03-20T02:14:53.697Z,1011.88
2018-03-20T02:14:54.296Z,1011.89
2018-03-20T02:14:54.894Z,1011.87
2018-03-20T02:14:55.495Z,1011.88
2018-03-20T02:15:48.976Z,1011.91
2018-03-20T02:15:49.548Z,1011.90
2018-03-20T02:15:50.151Z,1011.89
2018-03-20T02:15:50.749Z,1011.89
2018-03-20T02:15:51.347Z,1011.85
2018-03-20T02:15:51.947Z,1011.88
2018-03-20T02:15:52.548Z,1011.92
2018-03-20T02:15:53.148Z,1011.90
2018-03-20T02:16:47.653Z,1011.84
2018-03-20T02:16:48.224Z,1011.83
2018-03-20T02:16:48.823Z,1011.84
2018-03-20T02:16:49.422Z,1011.85
2018-03-20T02:16:50.022Z,1011.81
2018-03-20T02:16:50.624Z,1011.86
2018-03-20T02:16:51.221Z,1011.82
2018-03-20T02:16:51.821Z,1011.80
2018-03-20T02:17:45.305Z,1011.90
2018-03-20T02:17:45.875Z,1011.88
2018-03-20T02:17:46.478Z,1011.84
2018-03-20T02:17:47.075Z,1011.84
2018-03-20T02:17:47.675Z,1011.89
2018-03-20T02:17:48.275Z,1011.89
2018-03-20T02:17:48.876Z,1011.86
2018-03-20T02:17:49.474Z,1011.88
2018-03-20T02:18:42.957Z,1011.87
2018-03-20T02:18:43.529Z,1011.86
2018-03-20T02:18:44.127Z,1011.84
2018-03-20T02:18:44.727Z,1011.88
2018-03-20T02:18:45.325Z,1011.89
2018-03-20T02:18:45.928Z,1011.89
2018-03-20T02:18:46.533Z,1011.89
2018-03-20T02:18:47.125Z,1011.91
2018-03-20T02:19:41.633Z,1011.89
2018-03-20T02:19:42.203Z,1011.89
2018-03-20T02:19:42.808Z,1011.86
2018-03-20T02:19:43.400Z,1011.88
2018-03-20T02:19:44.000Z,1011.86
2018-03-20T02:19:44.602Z,1011.85
2018-03-20T02:19:45.226Z,1011.84
2018-03-20T02:19:45.801Z,1011.86
2018-03-20T02:20:39.288Z,1011.87
2018-03-20T02:20:39.855Z,1011.87
2018-03-20T02:20:40.453Z,1011.86
2018-03-20T02:20:41.053Z,1011.86
2018-03-20T02:20:41.654Z,1011.85
2018-03-20T02:20:42.263Z,1011.83
2018-03-20T02:20:42.853Z,1011.85
2018-03-20T02:20:43.454Z,1011.87
2018-03-20T02:21:36.937Z,1011.85
2018-03-20T02:21:37.507Z,1011.85
2018-03-20T02:21:38.104Z,1011.84
2018-03-20T02:21:38.705Z,1011.84
2018-03-20T02:21:39.307Z,1011.84
2018-03-20T02:21:39.905Z,1011.84
2018-03-20T02:21:40.506Z,1011.85
2018-03-20T02:21:41.106Z,1011.86
2018-03-20T02:22:35.608Z,1011.84
2018-03-20T02:22:36.185Z,1011.82
2018-03-20T02:22:36.780Z,1011.83
2018-03-20T02:22:37.380Z,1011.86
2018-03-20T02:22:37.980Z,1011.83
2018-03-20T02:22:38.582Z,1011.85
2018-03-20T02:22:39.180Z,1011.84
2018-03-20T02:22:39.784Z,1011.80
2018-03-20T02:23:33.264Z,1011.83
2018-03-20T02:23:33.833Z,1011.83
2018-03-20T02:23:34.434Z,1011.82
2018-03-20T02:23:35.044Z,1011.82
2018-03-20T02:23:35.634Z,1011.81
2018-03-20T02:23:36.233Z,1011.79
2018-03-20T02:23:36.833Z,1011.82
2018-03-20T02:23:37.432Z,1011.83
2018-03-20T02:24:31.939Z,1011.75
2018-03-20T02:24:32.509Z,1011.76
2018-03-20T02:24:33.107Z,1011.75
2018-03-20T02:24:33.708Z,1011.74
2018-03-20T02:24:34.312Z,1011.76
2018-03-20T02:24:34.907Z,1011.73
2018-03-20T02:24:35.509Z,1011.75
2018-03-20T02:24:36.107Z,1011.73
2018-03-20T02:25:29.591Z,1011.68
2018-03-20T02:25:30.161Z,1011.70
2018-03-20T02:25:30.761Z,1011.74
2018-03-20T02:25:31.359Z,1011.71
2018-03-20T02:25:31.959Z,1011.69
2018-03-20T02:25:32.560Z,1011.73
2018-03-20T02:25:33.158Z,1011.73
2018-03-20T02:25:33.758Z,1011.73
2018-03-20T02:26:28.264Z,1011.71
2018-03-20T02:26:28.836Z,1011.72
2018-03-20T02:26:29.434Z,1011.70
2018-03-20T02:26:30.039Z,1011.70
2018-03-20T02:26:30.634Z,1011.70
2018-03-20T02:26:31.235Z,1011.74
2018-03-20T02:26:31.840Z,1011.68
2018-03-20T02:26:32.435Z,1011.69
2018-03-20T02:27:26.942Z,1011.73
2018-03-20T02:27:27.510Z,1011.71
2018-03-20T02:27:28.114Z,1011.71
2018-03-20T02:27:28.712Z,1011.70
2018-03-20T02:27:29.312Z,1011.69
2018-03-20T02:27:29.915Z,1011.69
2018-03-20T02:27:30.509Z,1011.74
2018-03-20T02:27:31.109Z,1011.70
2018-03-20T02:28:24.593Z,1011.74
2018-03-20T02:28:25.164Z,1011.74
2018-03-20T02:28:25.763Z,1011.74
2018-03-20T02:28:26.365Z,1011.73
2018-03-20T02:28:26.962Z,1011.74
2018-03-20T02:28:27.571Z,1011.73
2018-03-20T02:28:28.164Z,1011.75
2018-03-20T02:28:28.761Z,1011.74
2018-03-20T02:29:23.270Z,1011.73
2018-03-20T02:29:23.838Z,1011.74
2018-03-20T02:29:24.444Z,1011.72
2018-03-20T02:29:25.038Z,1011.74
2018-03-20T02:29:25.639Z,1011.71
2018-03-20T02:29:26.237Z,1011.72
2018-03-20T02:29:26.837Z,1011.73
2018-03-20T02:29:27.443Z,1011.72
2018-03-20T02:30:21.944Z,1011.69
2018-03-20T02:30:22.513Z,1011.67
2018-03-20T02:30:23.113Z,1011.69
2018-03-20T02:30:23.713Z,1011.69
2018-03-20T02:30:24.313Z,1011.67
2018-03-20T02:30:24.914Z,1011.64
2018-03-20T02:30:25.514Z,1011.64
2018-03-20T02:30:26.124Z,1011.67
2018-03-20T02:31:19.597Z,1011.68
2018-03-20T02:31:20.167Z,1011.68
2018-03-20T02:31:20.766Z,1011.71
2018-03-20T02:31:21.374Z,1011.69
2018-03-20T02:31:21.967Z,1011.70
2018-03-20T02:31:22.566Z,1011.65
2018-03-20T02:31:23.168Z,1011.71
2018-03-20T02:31:23.765Z,1011.70
2018-03-20T02:32:18.272Z,1011.64
2018-03-20T02:32:18.848Z,1011.65
2018-03-20T02:32:19.441Z,1011.65
2018-03-20T02:32:20.043Z,1011.65
2018-03-20T02:32:20.640Z,1011.63
2018-03-20T02:32:21.240Z,1011.66
2018-03-20T02:32:21.841Z,1011.69
2018-03-20T02:32:22.439Z,1011.65
2018-03-20T02:33:16.949Z,1011.68
2018-03-20T02:33:17.517Z,1011.62
2018-03-20T02:33:18.116Z,1011.63
2018-03-20T02:33:18.717Z,1011.63
2018-03-20T02:33:19.323Z,1011.65
2018-03-20T02:33:19.918Z,1011.66
2018-03-20T02:33:20.521Z,1011.66
2018-03-20T02:33:21.115Z,1011.69
2018-03-20T02:34:15.626Z,1011.66
2018-03-20T02:34:16.196Z,1011.61
2018-03-20T02:34:16.792Z,1011.68
2018-03-20T02:34:17.392Z,1011.63
2018-03-20T02:34:17.991Z,1011.62
2018-03-20T02:34:18.594Z,1011.61
2018-03-20T02:34:19.191Z,1011.62
2018-03-20T02:34:19.794Z,1011.65
2018-03-20T02:35:14.299Z,1011.66
2018-03-20T02:35:14.869Z,1011.68
2018-03-20T02:35:15.468Z,1011.69
2018-03-20T02:35:16.069Z,1011.70
2018-03-20T02:35:16.668Z,1011.69
2018-03-20T02:35:17.267Z,1011.68
2018-03-20T02:35:17.869Z,1011.69
2018-03-20T02:35:18.468Z,1011.71
2018-03-20T02:36:12.974Z,1011.67
2018-03-20T02:36:13.546Z,1011.65
2018-03-20T02:36:14.144Z,1011.63
2018-03-20T02:36:14.743Z,1011.68
2018-03-20T02:36:15.343Z,1011.66
2018-03-20T02:36:15.948Z,1011.66
2018-03-20T02:36:16.543Z,1011.66
2018-03-20T02:36:17.142Z,1011.64
2018-03-20T02:37:11.650Z,1011.64
2018-03-20T02:37:12.221Z,1011.66
2018-03-20T02:37:12.819Z,1011.62
2018-03-20T02:37:13.419Z,1011.65
2018-03-20T02:37:14.022Z,1011.66
2018-03-20T02:37:14.619Z,1011.69
2018-03-20T02:37:15.217Z,1011.64
2018-03-20T02:37:15.817Z,1011.65
2018-03-20T02:38:10.326Z,1011.67
2018-03-20T02:38:10.895Z,1011.62
2018-03-20T02:38:11.497Z,1011.59
2018-03-20T02:38:12.095Z,1011.59
2018-03-20T02:38:12.694Z,1011.62
2018-03-20T02:38:13.296Z,1011.62
2018-03-20T02:38:13.897Z,1011.62
2018-03-20T02:38:14.505Z,1011.64
2018-03-20T02:39:08.999Z,1011.63
2018-03-20T02:39:09.573Z,1011.63
2018-03-20T02:39:10.171Z,1011.67
2018-03-20T02:39:10.770Z,1011.61
2018-03-20T02:39:11.371Z,1011.63
2018-03-20T02:39:11.971Z,1011.60
2018-03-20T02:39:12.570Z,1011.61
2018-03-20T02:39:13.171Z,1011.61
2018-03-20T02:56:30.308Z,1011.61
2018-03-20T02:56:30.880Z,1011.57
2018-03-20T02:56:31.479Z,1011.60
2018-03-20T02:56:32.078Z,1011.57
2018-03-20T02:56:32.680Z,1011.58
2018-03-20T02:56:33.277Z,1011.58
2018-03-20T02:56:33.878Z,1011.60
2018-03-20T02:56:34.479Z,1011.59
2018-03-20T02:57:28.985Z,1011.60
2018-03-20T02:57:29.555Z,1011.64
2018-03-20T02:57:30.155Z,1011.63
2018-03-20T02:57:30.754Z,1011.61
2018-03-20T02:57:31.354Z,1011.58
2018-03-20T02:57:31.955Z,1011.64
2018-03-20T02:57:32.554Z,1011.62
2018-03-20T02:57:33.156Z,1011.62
2018-03-20T02:58:27.663Z,1011.62
2018-03-20T02:58:28.232Z,1011.62
2018-03-20T02:58:28.831Z,1011.62
2018-03-20T02:58:29.430Z,1011.63
2018-03-20T02:58:30.032Z,1011.59
2018-03-20T02:58:30.631Z,1011.59
2018-03-20T02:58:31.231Z,1011.60
2018-03-20T02:58:31.831Z,1011.59
2018-03-20T02:59:26.338Z,1011.63
2018-03-20T02:59:26.906Z,1011.61
2018-03-20T02:59:27.507Z,1011.61
2018-03-20T02:59:28.107Z,1011.58
2018-03-20T02:59:28.707Z,1011.57
2018-03-20T02:59:29.307Z,1011.63
2018-03-20T02:59:29.907Z,1011.60
2018-03-20T02:59:30.508Z,1011.63
2018-03-20T03:00:23.991Z,1011.61
2018-03-20T03:00:24.561Z,1011.61
2018-03-20T03:00:25.169Z,1011.60
2018-03-20T03:00:25.762Z,1011.66
2018-03-20T03:00:26.362Z,1011.65
2018-03-20T03:00:26.961Z,1011.64
2018-03-20T03:00:27.568Z,1011.61
2018-03-20T03:00:28.161Z,1011.60
2018-03-20T03:01:22.666Z,1011.61
2018-03-20T03:01:23.236Z,1011.60
2018-03-20T03:01:23.835Z,1011.62
2018-03-20T03:01:24.435Z,1011.63
2018-03-20T03:01:25.036Z,1011.63
2018-03-20T03:01:25.633Z,1011.60
2018-03-20T03:01:26.233Z,1011.59
2018-03-20T03:01:26.837Z,1011.61
2018-03-20T03:02:21.342Z,1011.66
2018-03-20T03:02:21.912Z,1011.65
2018-03-20T03:02:22.512Z,1011.61
2018-03-20T03:02:23.111Z,1011.62
2018-03-20T03:02:23.712Z,1011.60
2018-03-20T03:02:24.313Z,1011.66
2018-03-20T03:02:24.912Z,1011.62
2018-03-20T03:02:25.511Z,1011.61
2018-03-20T03:03:20.024Z,1011.63
2018-03-20T03:03:20.588Z,1011.62
2018-03-20T03:03:21.190Z,1011.61
2018-03-20T03:03:21.788Z,1011.59
2018-03-20T03:03:22.387Z,1011.56
2018-03-20T03:03:22.987Z,1011.65
2018-03-20T03:03:23.588Z,1011.63
2018-03-20T03:03:24.187Z,1011.63
2018-03-20T03:04:18.695Z,1011.64
2018-03-20T03:04:19.265Z,1011.67
2018-03-20T03:04:19.867Z,1011.63
2018-03-20T03:04:20.464Z,1011.66
2018-03-20T03:04:21.062Z,1011.64
2018-03-20T03:04:21.663Z,1011.62
2018-03-20T03:04:22.263Z,1011.64
2018-03-20T03:04:22.862Z,1011.62
2018-03-20T03:05:17.371Z,1011.65
2018-03-20T03:05:17.941Z,1011.65
2018-03-20T03:05:18.540Z,1011.59
2018-03-20T03:05:19.140Z,1011.62
2018-03-20T03:05:19.741Z,1011.60
2018-03-20T03:05:20.338Z,1011.62
2018-03-20T03:05:20.947Z,1011.61
2018-03-20T03:05:21.539Z,1011.63
2018-03-20T03:06:15.025Z,1011.65
2018-03-20T03:06:15.593Z,1011.67
2018-03-20T03:06:16.193Z,1011.66
2018-03-20T03:06:16.792Z,1011.66
2018-03-20T03:06:17.392Z,1011.65
2018-03-20T03:06:17.995Z,1011.67
2018-03-20T03:06:18.591Z,1011.63
2018-03-20T03:06:19.191Z,1011.69
2018-03-20T03:07:13.696Z,1011.67
2018-03-20T03:07:14.267Z,1011.67
2018-03-20T03:07:14.867Z,1011.68
2018-03-20T03:07:15.468Z,1011.67
2018-03-20T03:07:16.070Z,1011.67
2018-03-20T03:07:16.666Z,1011.67
2018-03-20T03:07:17.266Z,1011.68
2018-03-20T03:07:17.867Z,1011.70
2018-03-20T03:08:12.376Z,1011.66
2018-03-20T03:08:12.944Z,1011.64
2018-03-20T03:08:13.543Z,1011.68
2018-03-20T03:08:14.143Z,1011.64
2018-03-20T03:08:14.743Z,1011.64
2018-03-20T03:08:15.342Z,1011.65
2018-03-20T03:08:15.946Z,1011.68
2018-03-20T03:08:16.540Z,1011.67
2018-03-20T03:09:11.047Z,1011.71
2018-03-20T03:09:11.619Z,1011.65
2018-03-20T03:09:12.236Z,1011.69
2018-03-20T03:09:12.818Z,1011.68
2018-03-20T03:09:13.421Z,1011.66
2018-03-20T03:09:14.018Z,1011.64
2018-03-20T03:09:14.629Z,1011.66
2018-03-20T03:09:15.219Z,1011.64
2018-03-20T03:10:09.724Z,1011.67
2018-03-20T03:10:10.294Z,1011.62
2018-03-20T03:10:10.894Z,1011.61
2018-03-20T03:10:11.495Z,1011.61
2018-03-20T03:10:12.094Z,1011.64
2018-03-20T03:10:12.693Z,1011.66
2018-03-20T03:10:13.294Z,1011.63
2018-03-20T03:10:13.892Z,1011.63
2018-03-20T03:11:08.401Z,1011.66
2018-03-20T03:11:08.970Z,1011.66
2018-03-20T03:11:09.570Z,1011.64
2018-03-20T03:11:10.173Z,1011.63
2018-03-20T03:11:10.769Z,1011.61
2018-03-20T03:11:11.369Z,1011.64
2018-03-20T03:11:11.969Z,1011.62
2018-03-20T03:11:12.569Z,1011.63
2018-03-20T03:12:06.054Z,1011.68
2018-03-20T03:12:06.623Z,1011.71
2018-03-20T03:12:07.222Z,1011.68
2018-03-20T03:12:07.823Z,1011.65
2018-03-20T03:12:08.423Z,1011.66
2018-03-20T03:12:09.023Z,1011.66
2018-03-20T03:12:09.623Z,1011.67
2018-03-20T03:12:10.221Z,1011.70
2018-03-20T03:13:04.728Z,1011.69
2018-03-20T03:13:05.299Z,1011.67
2018-03-20T03:13:05.897Z,1011.67
2018-03-20T03:13:06.500Z,1011.66
2018-03-20T03:13:07.098Z,1011.64
2018-03-20T03:13:07.699Z,1011.66
2018-03-20T03:13:08.297Z,1011.62
2018-03-20T03:13:08.898Z,1011.65
2018-03-20T03:14:02.381Z,1011.68
2018-03-20T03:14:02.950Z,1011.63
2018-03-20T03:14:03.550Z,1011.65
2018-03-20T03:14:04.150Z,1011.67
2018-03-20T03:14:04.750Z,1011.67
2018-03-20T03:14:05.350Z,1011.69
2018-03-20T03:14:05.949Z,1011.68
2018-03-20T03:14:06.555Z,1011.67
2018-03-20T03:15:00.033Z,1011.64
2018-03-20T03:15:00.603Z,1011.66
2018-03-20T03:15:01.202Z,1011.62
2018-03-20T03:15:01.802Z,1011.63
2018-03-20T03:15:02.414Z,1011.64
2018-03-20T03:15:02.998Z,1011.63
2018-03-20T03:15:03.599Z,1011.65
2018-03-20T03:15:04.201Z,1011.66
2018-03-20T03:15:58.707Z,1011.62
2018-03-20T03:15:59.279Z,1011.62
2018-03-20T03:15:59.877Z,1011.63
2018-03-20T03:16:00.476Z,1011.59
2018-03-20T03:16:01.075Z,1011.58
2018-03-20T03:16:01.679Z,1011.59
2018-03-20T03:16:02.276Z,1011.58
2018-03-20T03:16:02.877Z,1011.60
2018-03-20T03:16:56.358Z,1011.63
2018-03-20T03:16:56.930Z,1011.63
2018-03-20T03:16:57.529Z,1011.61
2018-03-20T03:16:58.128Z,1011.59
2018-03-20T03:16:58.730Z,1011.57
2018-03-20T03:16:59.329Z,1011.60
2018-03-20T03:16:59.928Z,1011.65
2018-03-20T03:17:00.530Z,1011.62
2018-03-20T03:17:55.036Z,1011.61
2018-03-20T03:17:55.606Z,1011.59
2018-03-20T03:17:56.208Z,1011.61
2018-03-20T03:17:56.804Z,1011.64
2018-03-20T03:17:57.404Z,1011.64
2018-03-20T03:17:58.003Z,1011.63
2018-03-20T03:17:58.604Z,1011.63
2018-03-20T03:17:59.202Z,1011.61
2018-03-20T03:18:53.713Z,1011.61
2018-03-20T03:18:54.280Z,1011.61
2018-03-20T03:18:54.880Z,1011.59
2018-03-20T03:18:55.480Z,1011.61
2018-03-20T03:18:56.081Z,1011.61
2018-03-20T03:18:56.681Z,1011.61
2018-03-20T03:18:57.279Z,1011.62
2018-03-20T03:18:57.878Z,1011.63
2018-03-20T03:19:52.387Z,1011.62
2018-03-20T03:19:52.957Z,1011.63
2018-03-20T03:19:53.556Z,1011.62
2018-03-20T03:19:54.157Z,1011.63
2018-03-20T03:19:54.756Z,1011.64
2018-03-20T03:19:55.356Z,1011.63
2018-03-20T03:19:55.955Z,1011.64
2018-03-20T03:19:56.555Z,1011.65
2018-03-20T03:20:51.061Z,1011.64
2018-03-20T03:20:51.631Z,1011.57
2018-03-20T03:20:52.231Z,1011.55
2018-03-20T03:20:52.830Z,1011.56
2018-03-20T03:20:53.430Z,1011.60
2018-03-20T03:20:54.030Z,1011.58
2018-03-20T03:20:54.632Z,1011.57
2018-03-20T03:20:55.231Z,1011.62
2018-03-20T03:21:49.739Z,1011.58
2018-03-20T03:21:50.309Z,1011.61
2018-03-20T03:21:50.907Z,1011.57
2018-03-20T03:21:51.506Z,1011.54
2018-03-20T03:21:52.106Z,1011.57
2018-03-20T03:21:52.707Z,1011.61
2018-03-20T03:21:53.307Z,1011.55
2018-03-20T03:21:53.906Z,1011.59
2018-03-20T03:22:48.412Z,1011.62
2018-03-20T03:22:48.987Z,1011.60
2018-03-20T03:22:49.583Z,1011.58
2018-03-20T03:22:50.183Z,1011.58
2018-03-20T03:22:50.783Z,1011.61
2018-03-20T03:22:51.383Z,1011.58
2018-03-20T03:22:51.982Z,1011.60
2018-03-20T03:22:52.583Z,1011.59
2018-03-20T03:23:46.067Z,1011.62
2018-03-20T03:23:46.636Z,1011.61
2018-03-20T03:23:47.235Z,1011.58
2018-03-20T03:23:47.836Z,1011.57
2018-03-20T03:23:48.435Z,1011.54
2018-03-20T03:23:49.035Z,1011.59
2018-03-20T03:23:49.636Z,1011.61
2018-03-20T03:23:50.237Z,1011.59
2018-03-20T03:24:44.749Z,1011.61
2018-03-20T03:24:45.311Z,1011.60
2018-03-20T03:24:45.911Z,1011.56
2018-03-20T03:24:46.509Z,1011.57
2018-03-20T03:24:47.109Z,1011.58
2018-03-20T03:24:47.710Z,1011.56
2018-03-20T03:24:48.309Z,1011.60
2018-03-20T03:24:48.960Z,1011.61
2018-03-20T03:25:42.395Z,1011.61
2018-03-20T03:25:42.963Z,1011.61
2018-03-20T03:25:43.563Z,1011.59
2018-03-20T03:25:44.160Z,1011.62
2018-03-20T03:25:44.761Z,1011.58
2018-03-20T03:25:45.361Z,1011.59
2018-03-20T03:25:45.959Z,1011.58
2018-03-20T03:25:46.559Z,1011.59
2018-03-20T03:26:41.079Z,1011.59
2018-03-20T03:26:41.637Z,1011.59
2018-03-20T03:26:42.239Z,1011.59
2018-03-20T03:26:42.837Z,1011.61
2018-03-20T03:26:43.437Z,1011.59
2018-03-20T03:26:44.039Z,1011.61